Buchel Airport ETSB

Flugplatz Daten

Name: Buchel Airport

Ident: ETSB

Lat: 50,17380142

Long: 7,063330173

Platzhöhe: 1568 ft

IataCode:

City:

Metar

2021/10/20 13:20
ETSB 201320Z 23012G24KT 3000 -SHRA BR FEW002 BKN006CB BKN012 13/12 Q1008 RESHRA YLO GRN TEMPO YLO

Taf

2015/09/21 08:30
TAF TAF ETSB 210720Z 2108/2120 23004KT 9999 NSW FEW100 BY ETGL
Gewünschte Webcam nicht vorhanden? Dann fügen Sie eine hinzu. Sie wird dann so schnell wie möglich freigeschaltet
Url: Title: